Time;durP1;ratioP1;P1;durP2;ratioP2;P2;SDS_P1;SDS_P2;PMS_P1;PMS_P2;Temp;Humidity;BMP_temperature;BMP_pressure;BME280_temperature;BME280_humidity;BME280_pressure;Samples;Min_cycle;Max_cycle;Signal;HPM_P1;HPM_P2
2022/06/19 00:00:35;;;;;;;5.55;4.22;;;;;;;26.19;50.97;101201.25;5073823;28;20044;-79
2022/06/19 00:03:14;;;;;;;5.47;4.78;;;;;;;26.20;50.92;101200.25;5073453;28;20048;-79
2022/06/19 00:05:41;;;;;;;5.95;4.60;;;;;;;26.22;50.76;101197.38;5073927;28;20048;-79
2022/06/19 00:08:09;;;;;;;5.05;4.63;;;;;;;26.23;50.77;101196.34;5074470;28;20044;-80
2022/06/19 00:10:36;;;;;;;4.38;3.97;;;;;;;26.23;50.96;101180.91;5073511;28;20040;-81
2022/06/19 00:13:04;;;;;;;4.90;4.22;;;;;;;26.26;50.92;101182.44;5074478;28;20048;-81
2022/06/19 00:15:31;;;;;;;6.13;4.25;;;;;;;26.27;50.84;101187.69;5074788;28;20049;-81
2022/06/19 00:17:58;;;;;;;5.07;4.55;;;;;;;26.29;50.91;101187.53;5074586;28;20052;-81
2022/06/19 00:20:26;;;;;;;4.18;3.78;;;;;;;26.29;50.73;101185.69;5074135;28;20052;-80
2022/06/19 00:22:53;;;;;;;5.03;4.53;;;;;;;26.30;51.17;101181.09;5074062;28;20044;-81
2022/06/19 00:25:20;;;;;;;6.18;4.57;;;;;;;26.31;51.06;101180.06;5075908;28;20448;-80
2022/06/19 00:27:48;;;;;;;4.93;3.90;;;;;;;26.32;51.17;101179.03;5053615;28;20400;-80
2022/06/19 00:30:16;;;;;;;5.57;4.50;;;;;;;26.33;50.77;101183.44;5053713;28;20068;-80
2022/06/19 00:32:43;;;;;;;5.15;4.10;;;;;;;26.33;50.90;101178.03;5052415;28;20072;-80
2022/06/19 00:35:11;;;;;;;4.72;4.03;;;;;;;26.35;51.13;101171.41;5052595;28;20052;-80
2022/06/19 00:37:38;;;;;;;5.40;4.45;;;;;;;26.35;51.12;101171.41;5051569;28;20496;-80
2022/06/19 00:40:10;;;;;;;4.82;4.32;;;;;;;26.36;51.06;101172.25;5053368;28;20048;-80
2022/06/19 00:42:39;;;;;;;5.10;4.60;;;;;;;26.37;51.10;101172.09;5053331;28;20045;-80
2022/06/19 00:45:26;;;;;;;4.90;4.15;;;;;;;26.37;51.09;101166.69;5053804;28;20060;-80
2022/06/19 00:47:54;;;;;;;5.57;4.45;;;;;;;26.39;51.22;101166.50;5052433;28;20079;-80
2022/06/19 00:50:26;;;;;;;4.82;4.32;;;;;;;26.39;51.07;101164.63;5052430;28;20388;-81
2022/06/19 00:52:54;;;;;;;4.78;4.30;;;;;;;26.38;50.98;101160.22;5050998;28;20053;-80
2022/06/19 00:55:34;;;;;;;5.07;4.22;;;;;;;26.40;50.97;101157.31;5053545;28;20052;-80
2022/06/19 00:58:25;;;;;;;4.47;3.72;;;;;;;26.40;51.01;101160.03;5067436;28;20055;-80
2022/06/19 01:01:04;;;;;;;6.55;4.50;;;;;;;26.42;51.09;101154.47;5076711;28;20072;-81
2022/06/19 01:03:41;;;;;;;4.85;4.32;;;;;;;26.41;51.14;101153.59;5075800;28;20059;-81
2022/06/19 01:06:10;;;;;;;6.07;4.28;;;;;;;26.42;51.01;101155.31;5077493;28;20052;-80
2022/06/19 01:08:37;;;;;;;5.72;4.25;;;;;;;26.43;51.05;101150.72;5077960;28;20049;-81
2022/06/19 01:11:05;;;;;;;5.10;4.60;;;;;;;26.44;51.12;101150.53;5076950;28;20041;-80
2022/06/19 01:13:33;;;;;;;6.07;3.60;;;;;;;26.43;51.22;101146.13;5076825;28;20033;-80
2022/06/19 01:16:03;;;;;;;5.47;4.30;;;;;;;26.44;51.04;101149.69;5076852;28;20045;-81
2022/06/19 01:18:33;;;;;;;4.57;4.07;;;;;;;26.44;50.92;101145.09;5076548;28;20048;-81
2022/06/19 01:21:12;;;;;;;4.30;3.90;;;;;;;26.46;51.05;101148.53;5077625;28;20048;-81
2022/06/19 01:23:47;;;;;;;4.45;4.05;;;;;;;26.46;51.05;101148.53;5077790;28;20049;-81
2022/06/19 01:26:19;;;;;;;4.55;4.15;;;;;;;26.46;51.01;101136.84;5082382;28;20040;-80
2022/06/19 01:28:54;;;;;;;6.27;4.30;;;;;;;26.47;51.20;101141.25;5075193;28;20381;-81
2022/06/19 01:31:27;;;;;;;4.03;3.58;;;;;;;26.46;50.87;101139.56;5075964;28;20763;-81
2022/06/19 01:36:57;;;;;;;6.25;4.32;;;;;;;26.46;50.76;101147.69;5076990;28;20399;-80
2022/06/19 01:39:26;;;;;;;5.97;4.45;;;;;;;26.45;50.66;101137.84;5076181;28;20056;-80
2022/06/19 01:41:54;;;;;;;5.47;4.32;;;;;;;26.44;50.49;101139.69;5075918;28;20052;-80
2022/06/19 01:44:21;;;;;;;4.85;4.05;;;;;;;26.45;50.64;101138.69;5076666;28;20044;-79
2022/06/19 01:46:49;;;;;;;4.30;3.90;;;;;;;26.44;50.29;101142.38;5075701;28;20048;-80
2022/06/19 01:49:17;;;;;;;5.13;3.47;;;;;;;26.44;50.27;101139.69;5076771;28;20496;-79
2022/06/19 01:51:44;;;;;;;3.70;3.33;;;;;;;26.44;50.52;101142.38;5076518;28;20056;-79
2022/06/19 01:54:20;;;;;;;5.38;3.83;;;;;;;26.45;50.27;101141.41;5075084;28;20060;-80
2022/06/19 01:56:50;;;;;;;4.35;3.70;;;;;;;26.44;50.19;101133.41;5074748;28;20052;-80
2022/06/19 01:59:18;;;;;;;5.20;3.78;;;;;;;26.46;50.18;101136.84;5076725;28;20075;-79
2022/06/19 02:01:47;;;;;;;4.55;3.88;;;;;;;26.45;50.25;101141.41;5075755;28;20052;-79
2022/06/19 02:04:14;;;;;;;4.40;3.97;;;;;;;26.46;50.16;101131.41;5073779;28;20507;-79
2022/06/19 02:06:46;;;;;;;4.63;3.85;;;;;;;26.45;50.27;101135.97;5075099;28;20040;-79
2022/06/19 02:09:17;;;;;;;5.30;4.15;;;;;;;26.45;50.11;101127.81;5075127;28;20049;-78
2022/06/19 02:11:44;;;;;;;5.40;3.58;;;;;;;26.46;50.32;101124.13;5075275;28;20045;-78
2022/06/19 02:14:14;;;;;;;7.22;4.10;;;;;;;26.45;50.21;101114.25;5074911;28;20037;-78
2022/06/19 02:16:43;;;;;;;7.90;3.70;;;;;;;26.46;50.36;101112.41;5074423;28;20033;-78
2022/06/19 02:19:11;;;;;;;5.50;4.55;;;;;;;26.45;50.17;101114.25;5074287;28;20484;-77
2022/06/19 02:21:40;;;;;;;5.35;3.45;;;;;;;26.47;50.33;101105.94;5074907;28;20041;-79
2022/06/19 02:24:10;;;;;;;4.25;3.83;;;;;;;26.47;50.27;101101.38;5074631;28;20063;-78
2022/06/19 02:26:39;;;;;;;4.80;3.72;;;;;;;26.48;50.27;101107.63;5075041;28;20052;-78
2022/06/19 02:29:09;;;;;;;4.53;3.75;;;;;;;26.47;50.11;101112.22;5075038;28;20055;-78
2022/06/19 02:31:41;;;;;;;5.18;3.90;;;;;;;26.47;50.20;101101.38;5074810;28;20502;-78
2022/06/19 02:34:21;;;;;;;5.20;3.63;;;;;;;26.48;50.11;101102.22;5074688;28;20068;-79
2022/06/19 02:36:54;;;;;;;6.57;4.00;;;;;;;26.48;50.25;101102.22;5074739;28;20044;-79
2022/06/19 02:39:53;;;;;;;6.95;3.90;;;;;;;26.48;50.44;101100.34;5074527;28;20388;-79
2022/06/19 02:42:20;;;;;;;4.38;3.40;;;;;;;26.49;50.09;101106.59;5074070;28;20036;-79
2022/06/19 02:44:50;;;;;;;4.60;3.30;;;;;;;26.50;50.28;101111.88;5073969;28;20044;-80
2022/06/19 02:47:18;;;;;;;5.32;3.72;;;;;;;26.50;50.27;101105.63;5074008;28;20048;-79
2022/06/19 02:49:46;;;;;;;4.60;3.53;;;;;;;26.50;50.18;101106.47;5074462;28;20492;-79
2022/06/19 02:52:13;;;;;;;7.15;3.60;;;;;;;26.50;50.06;101098.31;5073670;28;20423;-79
2022/06/19 02:54:40;;;;;;;4.13;3.67;;;;;;;26.51;50.12;101104.59;5056517;28;20060;-79
2022/06/19 02:57:11;;;;;;;3.90;3.50;;;;;;;26.52;50.21;101103.56;5073829;28;20055;-79
2022/06/19 02:59:38;;;;;;;4.45;3.38;;;;;;;26.52;50.31;101098.13;5073654;28;20052;-82
2022/06/19 03:02:06;;;;;;;5.47;3.55;;;;;;;26.53;50.28;101095.22;5074423;28;20052;-80
2022/06/19 03:04:38;;;;;;;4.13;3.65;;;;;;;26.53;50.47;101089.78;5075325;28;20427;-80
2022/06/19 03:07:06;;;;;;;6.00;3.88;;;;;;;26.54;50.19;101098.81;5075367;28;20049;-81
2022/06/19 03:09:34;;;;;;;4.68;3.42;;;;;;;26.54;50.52;101105.09;5075005;28;20435;-80
2022/06/19 03:12:01;;;;;;;4.80;3.45;;;;;;;26.53;50.14;101099.81;5074604;28;20055;-81
2022/06/19 03:14:28;;;;;;;5.63;3.35;;;;;;;26.51;49.77;101099.16;5107281;28;20040;-79
2022/06/19 03:16:56;;;;;;;4.15;3.70;;;;;;;26.49;49.26;101110.16;5074648;28;20392;-80
2022/06/19 03:19:23;;;;;;;3.65;2.95;;;;;;;26.46;49.24;101102.38;5073153;28;20495;-80
2022/06/19 03:21:51;;;;;;;4.82;3.38;;;;;;;26.43;48.88;101104.56;5071873;28;20048;-80
2022/06/19 03:24:18;;;;;;;4.95;3.72;;;;;;;26.42;49.28;101102.88;5074059;28;20392;-80
2022/06/19 03:26:46;;;;;;;4.68;3.58;;;;;;;26.40;49.17;101105.75;5086868;28;20057;-80
2022/06/19 03:29:13;;;;;;;4.28;3.30;;;;;;;26.39;49.27;101102.19;5078186;28;20411;-80
2022/06/19 03:31:40;;;;;;;5.68;3.67;;;;;;;26.39;49.31;101104.06;5073903;28;20055;-80
2022/06/19 03:34:08;;;;;;;6.32;3.80;;;;;;;26.37;49.68;101101.53;5073713;28;20067;-80
2022/06/19 03:36:35;;;;;;;5.03;3.95;;;;;;;26.34;49.64;101106.44;5071965;28;20059;-79
2022/06/19 03:39:02;;;;;;;8.45;4.07;;;;;;;26.33;49.51;101105.59;5074535;28;20051;-79
2022/06/19 03:41:30;;;;;;;5.82;3.60;;;;;;;26.32;49.38;101103.88;5074371;28;20059;-80
2022/06/19 03:43:57;;;;;;;4.75;3.35;;;;;;;26.32;49.18;101105.75;5074017;28;20056;-79
2022/06/19 03:46:24;;;;;;;5.40;3.58;;;;;;;26.30;49.01;101099.66;5072198;28;20055;-79
2022/06/19 03:48:52;;;;;;;6.20;3.63;;;;;;;26.29;48.94;101103.38;5073548;28;20052;-79
2022/06/19 03:51:23;;;;;;;4.93;3.65;;;;;;;26.28;49.07;101102.53;5073914;28;20511;-79
2022/06/19 03:53:52;;;;;;;3.97;3.42;;;;;;;26.27;49.20;101106.28;5073762;28;20499;-80
2022/06/19 03:56:24;;;;;;;4.38;3.17;;;;;;;26.26;49.19;101106.47;5074069;28;20045;-79
2022/06/19 03:58:52;;;;;;;4.70;3.45;;;;;;;26.26;49.30;101109.16;5073961;28;20053;-80
2022/06/19 04:01:46;;;;;;;5.38;3.83;;;;;;;26.25;49.24;101102.91;5072254;28;20044;-79
2022/06/19 04:04:13;;;;;;;4.65;3.72;;;;;;;26.25;49.35;101102.91;5072384;28;20511;-79
2022/06/19 04:06:42;;;;;;;7.85;4.10;;;;;;;26.24;49.53;101100.34;5073579;28;20488;-79
2022/06/19 04:09:13;;;;;;;4.70;3.67;;;;;;;26.24;49.48;101100.34;5072217;28;20127;-79
2022/06/19 04:11:41;;;;;;;6.03;3.00;;;;;;;26.24;49.65;101101.19;5072351;28;20041;-80
2022/06/19 04:14:13;;;;;;;4.82;3.78;;;;;;;26.25;49.39;101104.75;5073766;28;20049;-79
2022/06/19 04:16:40;;;;;;;6.10;3.63;;;;;;;26.23;49.31;101096.78;5073477;28;20041;-79
2022/06/19 04:19:07;;;;;;;4.88;3.30;;;;;;;26.23;49.38;101098.66;5073767;28;20048;-79
2022/06/19 04:21:40;;;;;;;5.55;3.30;;;;;;;26.24;49.44;101105.75;5073560;28;20044;-79
2022/06/19 04:24:11;;;;;;;7.85;3.38;;;;;;;26.23;49.40;101110.34;5073384;28;20525;-78
2022/06/19 04:26:40;;;;;;;5.40;3.35;;;;;;;26.23;49.45;101107.63;5073758;28;20053;-79
2022/06/19 04:29:09;;;;;;;4.13;3.03;;;;;;;26.23;49.01;101113.06;5084157;28;20043;-78
2022/06/19 04:31:37;;;;;;;5.28;2.97;;;;;;;26.23;48.98;101104.91;5096565;28;20036;-79
2022/06/19 04:34:04;;;;;;;5.30;3.85;;;;;;;26.21;48.58;101106.97;5097649;28;20036;-79
2022/06/19 04:36:32;;;;;;;7.68;3.42;;;;;;;26.20;48.32;101099.81;5097387;28;20483;-80
2022/06/19 04:38:59;;;;;;;7.15;3.28;;;;;;;26.19;48.25;101091.88;5097308;28;20055;-80
2022/06/19 04:41:31;;;;;;;3.65;2.95;;;;;;;26.18;48.20;101101.03;5097518;28;20047;-79
2022/06/19 04:43:59;;;;;;;3.57;2.97;;;;;;;26.18;48.32;101103.75;5095862;28;20051;-80
2022/06/19 04:46:27;;;;;;;6.93;3.13;;;;;;;26.16;48.35;101103.06;5097624;28;20047;-79
2022/06/19 04:48:57;;;;;;;6.50;3.50;;;;;;;26.17;48.41;101105.63;5097175;28;20048;-80
2022/06/19 04:51:24;;;;;;;4.93;3.53;;;;;;;26.17;48.87;101100.19;5096578;28;20483;-80
2022/06/19 04:53:53;;;;;;;5.70;3.47;;;;;;;26.18;49.03;101103.75;5095135;28;20044;-80
2022/06/19 04:56:21;;;;;;;3.88;2.90;;;;;;;26.20;49.46;101104.41;5096298;28;20048;-80
2022/06/19 04:58:49;;;;;;;5.35;3.05;;;;;;;26.21;49.66;101108.81;5084341;28;20396;-79
2022/06/19 05:01:24;;;;;;;6.38;3.30;;;;;;;26.20;49.66;101107.97;5076941;28;20048;-79
2022/06/19 05:03:54;;;;;;;4.47;2.95;;;;;;;26.22;49.73;101113.25;5077095;28;20037;-80
2022/06/19 05:06:22;;;;;;;4.80;2.67;;;;;;;26.21;49.12;101106.97;5110131;28;20047;-79
2022/06/19 05:08:50;;;;;;;7.25;3.55;;;;;;;26.21;49.48;101106.09;5077982;28;20051;-79
2022/06/19 05:11:19;;;;;;;4.90;3.63;;;;;;;26.23;48.99;101112.22;5109326;28;20045;-79
2022/06/19 05:13:46;;;;;;;5.10;3.55;;;;;;;26.23;48.59;101112.22;5076875;28;20052;-80
2022/06/19 05:16:16;;;;;;;6.25;3.33;;;;;;;26.23;48.74;101114.94;5109244;28;20492;-80
2022/06/19 05:18:44;;;;;;;5.50;3.28;;;;;;;26.22;48.67;101119.53;5077293;28;20044;-81
2022/06/19 05:21:21;;;;;;;7.43;3.53;;;;;;;26.23;48.85;101114.94;5077348;28;20064;-80
2022/06/19 05:23:50;;;;;;;5.72;3.13;;;;;;;26.23;49.08;101120.38;5076931;28;20041;-80
2022/06/19 05:26:21;;;;;;;8.77;3.55;;;;;;;26.23;49.18;101120.38;5076503;28;20048;-80
2022/06/19 05:28:50;;;;;;;7.10;3.38;;;;;;;26.24;49.59;101127.47;5076876;28;20456;-80
2022/06/19 05:31:18;;;;;;;5.45;3.65;;;;;;;26.25;49.57;101134.59;5083184;28;20037;-79
2022/06/19 05:33:45;;;;;;;6.00;3.30;;;;;;;26.26;49.60;101128.16;5076824;28;20369;-80
2022/06/19 05:36:13;;;;;;;6.25;3.40;;;;;;;26.26;49.58;101128.16;5076426;28;20052;-79
2022/06/19 05:38:40;;;;;;;6.10;3.42;;;;;;;26.26;49.28;101125.47;5076626;28;20055;-80
2022/06/19 05:41:08;;;;;;;7.68;3.20;;;;;;;26.28;49.32;101120.69;5076274;28;20044;-81
2022/06/19 05:43:36;;;;;;;8.55;2.85;;;;;;;26.27;49.14;101125.28;5076384;28;20044;-80
2022/06/19 05:46:14;;;;;;;4.63;2.70;;;;;;;26.27;48.90;101127.16;5077023;28;20063;-79
2022/06/19 05:48:42;;;;;;;6.10;2.67;;;;;;;26.27;48.80;101127.16;5073529;28;20419;-81
2022/06/19 05:51:12;;;;;;;7.43;3.95;;;;;;;26.26;48.73;101129.00;5076276;28;20052;-80
2022/06/19 05:53:43;;;;;;;7.85;3.50;;;;;;;26.27;48.88;101141.56;5076433;28;20052;-81
2022/06/19 05:56:11;;;;;;;8.95;4.78;;;;;;;26.27;48.91;101133.41;5076163;28;20055;-81
2022/06/19 05:58:38;;;;;;;8.63;5.10;;;;;;;26.26;49.21;101137.16;5076399;28;20044;-81
2022/06/19 06:01:06;;;;;;;7.75;5.47;;;;;;;26.26;49.42;101131.72;5076174;28;20055;-79
2022/06/19 06:03:33;;;;;;;11.13;6.40;;;;;;;26.26;49.57;101130.88;5075237;28;20053;-81
2022/06/19 06:06:02;;;;;;;11.02;6.47;;;;;;;26.26;49.63;101131.72;5076194;28;20409;-79
2022/06/19 06:08:30;;;;;;;8.40;6.00;;;;;;;26.27;49.39;101133.41;5076442;28;20057;-81
2022/06/19 06:10:58;;;;;;;9.55;6.45;;;;;;;26.28;50.00;101132.38;5076983;28;20049;-80
2022/06/19 06:13:25;;;;;;;8.15;6.38;;;;;;;26.29;50.02;101134.09;5076494;28;20045;-80
2022/06/19 06:15:53;;;;;;;9.65;6.30;;;;;;;26.28;49.92;101126.97;5074346;28;20503;-81
2022/06/19 06:18:20;;;;;;;10.18;6.93;;;;;;;26.28;49.93;101118.81;5075122;28;20052;-79
2022/06/19 06:20:59;;;;;;;9.85;7.25;;;;;;;26.29;49.97;101120.53;5073956;28;20415;-79
2022/06/19 06:23:28;;;;;;;7.78;6.05;;;;;;;26.29;49.87;101120.53;5075031;28;20048;-79
2022/06/19 06:26:05;;;;;;;11.05;6.95;;;;;;;26.32;49.68;101124.75;5074037;28;20049;-80
2022/06/19 06:28:33;;;;;;;12.18;6.63;;;;;;;26.32;50.59;101124.75;5108179;28;20045;-80
2022/06/19 06:31:00;;;;;;;11.95;6.47;;;;;;;26.30;50.96;101132.25;5092501;28;20053;-81
2022/06/19 06:33:28;;;;;;;10.60;5.95;;;;;;;26.29;50.80;101130.53;5074046;28;20051;-79
2022/06/19 06:35:57;;;;;;;10.43;6.05;;;;;;;26.28;50.65;101131.53;5073508;28;20049;-81
2022/06/19 06:38:25;;;;;;;6.97;4.85;;;;;;;26.30;49.72;101129.53;5077741;28;20475;-79
2022/06/19 06:40:52;;;;;;;8.82;4.45;;;;;;;26.29;49.00;101125.97;5075907;28;20377;-80
2022/06/19 06:43:21;;;;;;;9.95;5.15;;;;;;;26.31;49.81;101128.50;5076564;28;20051;-80
2022/06/19 06:45:48;;;;;;;6.53;3.95;;;;;;;26.34;49.63;101133.59;5075754;28;20044;-79
2022/06/19 06:48:17;;;;;;;8.57;4.22;;;;;;;26.35;49.90;101132.56;5073688;28;20045;-80
2022/06/19 06:50:45;;;;;;;7.32;3.80;;;;;;;26.36;49.74;101129.66;5075181;28;20051;-80
2022/06/19 06:53:14;;;;;;;8.85;4.05;;;;;;;26.37;48.02;101123.25;5073685;28;20040;-78
2022/06/19 06:55:43;;;;;;;8.57;3.97;;;;;;;26.39;48.67;101123.91;5074661;28;20495;-78
2022/06/19 06:58:11;;;;;;;8.10;3.90;;;;;;;26.41;48.96;101121.00;5073193;28;20056;-78
2022/06/19 07:00:40;;;;;;;5.38;2.92;;;;;;;26.43;46.80;101115.44;5074563;28;20055;-80
2022/06/19 07:03:07;;;;;;;6.85;3.47;;;;;;;26.45;46.79;101127.81;5073512;28;20451;-79
2022/06/19 07:05:35;;;;;;;4.03;2.58;;;;;;;26.47;46.85;101128.50;5074042;28;20056;-80
2022/06/19 07:08:02;;;;;;;5.25;2.97;;;;;;;26.49;47.60;101131.03;5073193;28;20055;-80
2022/06/19 07:10:29;;;;;;;7.40;2.88;;;;;;;26.50;46.11;101122.75;5074837;28;20495;-80
2022/06/19 07:12:57;;;;;;;6.30;2.63;;;;;;;26.53;45.11;101126.97;5072330;28;20052;-79
2022/06/19 07:15:24;;;;;;;5.20;2.47;;;;;;;26.55;44.10;101120.34;5073373;28;20115;-79
2022/06/19 07:17:52;;;;;;;4.18;2.40;;;;;;;26.57;44.16;101117.44;5071437;28;20131;-79
2022/06/19 07:20:19;;;;;;;4.75;2.35;;;;;;;26.59;45.08;101118.16;5073266;28;20045;-79
2022/06/19 07:22:47;;;;;;;4.43;2.67;;;;;;;26.59;45.03;101121.69;5071916;28;20075;-83
2022/06/19 07:25:20;;;;;;;5.47;3.17;;;;;;;26.61;44.69;101108.78;5073208;28;20037;-80
2022/06/19 07:27:48;;;;;;;3.97;2.17;;;;;;;26.66;43.95;101110.13;5072898;28;20048;-80
2022/06/19 07:30:19;;;;;;;4.80;2.42;;;;;;;26.68;43.30;101102.66;5072041;28;20056;-80
2022/06/19 07:32:46;;;;;;;5.00;2.47;;;;;;;26.70;44.74;101109.63;5077748;28;20048;-78
2022/06/19 07:35:14;;;;;;;5.35;2.50;;;;;;;26.74;44.79;101110.09;5092459;28;20432;-78
2022/06/19 07:37:42;;;;;;;4.97;2.60;;;;;;;26.78;44.23;101114.16;5093359;28;20059;-78
2022/06/19 07:40:13;;;;;;;5.03;2.30;;;;;;;26.78;45.31;101112.34;5092952;28;20521;-77
2022/06/19 07:42:40;;;;;;;6.20;2.70;;;;;;;26.78;45.83;101112.34;5094072;28;20055;-77
2022/06/19 07:45:08;;;;;;;6.93;2.90;;;;;;;26.78;46.43;101111.44;5092961;28;20044;-77
2022/06/19 07:50:22;;;;;;;5.38;2.92;;;;;;;26.78;46.80;101103.31;5072701;28;20045;-77
2022/06/19 07:52:51;;;;;;;3.67;2.58;;;;;;;26.77;46.86;101102.47;5073737;28;20040;-79
2022/06/19 07:55:22;;;;;;;3.50;2.72;;;;;;;26.77;46.84;101093.47;5074937;28;20048;-78
2022/06/19 07:57:50;;;;;;;6.88;2.50;;;;;;;26.76;47.33;101092.63;5072539;28;20036;-78
2022/06/19 08:00:24;;;;;;;4.63;2.63;;;;;;;26.77;47.27;101090.75;5071784;28;20516;-82
2022/06/19 08:02:52;;;;;;;8.15;2.95;;;;;;;26.76;46.98;101086.34;5073894;28;20059;-82
2022/06/19 08:05:23;;;;;;;6.60;2.72;;;;;;;26.77;47.69;101086.16;5076380;28;20032;-83
2022/06/19 08:07:52;;;;;;;6.65;2.60;;;;;;;26.78;48.03;101087.00;5080349;28;20511;-86
2022/06/19 08:10:30;;;;;;;5.07;2.72;;;;;;;26.80;47.70;101079.53;5081350;28;20040;-84
2022/06/19 08:12:57;;;;;;;4.35;2.78;;;;;;;26.84;47.00;101086.31;5079324;28;20098;-81
2022/06/19 08:15:26;;;;;;;4.55;2.53;;;;;;;26.85;46.64;101088.84;5080574;28;20044;-81
2022/06/19 08:17:54;;;;;;;4.80;2.78;;;;;;;26.86;46.31;101085.13;5080437;28;20047;-85
2022/06/19 08:20:22;;;;;;;3.55;2.55;;;;;;;26.86;46.62;101073.44;5080187;28;20048;-83
2022/06/19 08:22:50;;;;;;;4.97;2.63;;;;;;;26.88;46.58;101077.66;5082108;28;20388;-82
2022/06/19 08:25:19;;;;;;;4.82;3.40;;;;;;;26.90;46.94;101084.75;5078698;28;20036;-83
2022/06/19 08:27:49;;;;;;;5.72;2.75;;;;;;;26.94;45.07;101076.13;5079838;28;20052;-82
2022/06/19 08:30:16;;;;;;;4.28;2.92;;;;;;;27.06;43.65;101077.41;5079367;28;20044;-88
2022/06/19 08:32:43;;;;;;;6.00;3.20;;;;;;;27.09;44.90;101081.63;5081276;28;20058;-87
2022/06/19 08:35:11;;;;;;;5.65;3.05;;;;;;;27.09;45.66;101079.75;5081848;28;20067;-88
2022/06/19 08:37:40;;;;;;;4.95;3.33;;;;;;;27.10;44.96;101084.22;5080749;28;20048;-86
2022/06/19 08:40:20;;;;;;;6.25;3.00;;;;;;;27.12;45.65;101086.75;5079781;28;20412;-87
2022/06/19 08:43:09;;;;;;;4.13;3.33;;;;;;;27.16;44.77;101079.09;5079852;28;20407;-89
2022/06/19 08:45:45;;;;;;;8.45;3.40;;;;;;;27.19;43.45;101076.03;5082424;28;20040;-85
2022/06/19 08:48:19;;;;;;;7.30;3.65;;;;;;;27.35;43.12;101078.66;5080036;28;20048;-86
2022/06/19 08:51:02;;;;;;;3.92;3.00;;;;;;;27.38;43.43;101075.56;5079575;28;20052;-86
2022/06/19 08:53:48;;;;;;;5.20;3.60;;;;;;;27.37;43.44;101071.16;5079523;28;20048;-83
2022/06/19 08:57:02;;;;;;;4.00;3.05;;;;;;;27.33;44.23;101065.22;5079945;28;20040;-85
2022/06/19 09:00:06;;;;;;;4.85;3.28;;;;;;;27.29;44.67;101069.31;5071267;28;20056;-92
2022/06/19 09:03:06;;;;;;;5.07;2.88;;;;;;;27.27;43.93;101065.94;5081644;28;20056;-90
2022/06/19 09:05:53;;;;;;;5.28;3.83;;;;;;;27.67;41.35;101058.56;5082362;28;20040;-92
2022/06/19 09:08:39;;;;;;;5.95;3.75;;;;;;;27.95;40.80;101077.03;5080849;28;20047;-84
2022/06/19 09:11:16;;;;;;;4.30;3.38;;;;;;;28.01;41.45;101079.03;5080206;28;20055;-83
2022/06/19 09:14:09;;;;;;;4.38;3.22;;;;;;;27.95;42.36;101071.59;5062079;28;20063;-83
2022/06/19 09:16:50;;;;;;;6.43;3.47;;;;;;;27.91;42.26;101079.28;5077780;28;20070;-85
2022/06/19 09:19:42;;;;;;;4.30;3.38;;;;;;;27.81;42.16;101076.81;5074321;28;20044;-83
2022/06/19 09:22:43;;;;;;;4.72;3.53;;;;;;;27.75;43.02;101074.84;5077579;28;20056;-84
2022/06/19 09:25:38;;;;;;;4.35;3.65;;;;;;;27.69;43.96;101069.25;5076917;28;20048;-84
2022/06/19 09:28:13;;;;;;;6.22;3.67;;;;;;;27.69;41.66;101061.06;5074178;28;20063;-82
2022/06/19 09:31:04;;;;;;;6.30;3.30;;;;;;;27.74;42.39;101067.69;5076879;28;20381;-83
2022/06/19 09:33:49;;;;;;;5.50;3.15;;;;;;;27.71;42.92;101067.16;5085272;28;20036;-86
2022/06/19 09:36:42;;;;;;;4.90;3.30;;;;;;;27.82;40.92;101066.78;5081385;28;20049;-88
2022/06/19 09:39:15;;;;;;;6.88;3.80;;;;;;;27.94;40.33;101062.59;5077154;28;20055;-86
2022/06/19 09:41:52;;;;;;;5.47;4.03;;;;;;;28.04;40.26;101062.34;5077632;28;20048;-82
2022/06/19 09:44:24;;;;;;;3.67;3.20;;;;;;;27.99;41.64;101062.88;5076503;28;20051;-84
2022/06/19 09:47:09;;;;;;;6.05;3.40;;;;;;;27.93;42.34;101060.91;5076396;28;20055;-91
2022/06/19 09:49:57;;;;;;;4.47;3.25;;;;;;;27.85;42.54;101055.53;5075112;28;20408;-87
2022/06/19 09:52:31;;;;;;;4.82;3.33;;;;;;;27.79;43.16;101045.38;5076418;28;20381;-95
2022/06/19 09:55:18;;;;;;;6.05;3.53;;;;;;;27.83;41.37;101049.41;5077994;28;20075;-88
2022/06/19 09:57:58;;;;;;;3.78;3.47;;;;;;;27.81;43.18;101043.34;5075707;28;20045;-86
2022/06/19 10:00:31;;;;;;;3.72;3.42;;;;;;;27.74;43.61;101040.47;5076685;28;20480;-88
2022/06/19 10:03:32;;;;;;;5.28;3.45;;;;;;;27.68;43.84;101046.63;5077079;28;20045;-89
2022/06/19 10:06:26;;;;;;;3.45;3.15;;;;;;;27.61;43.73;101040.22;5077177;28;20051;-83
2022/06/19 10:09:01;;;;;;;3.88;2.92;;;;;;;27.58;44.23;101032.41;5074849;28;20052;-84
2022/06/19 10:11:32;;;;;;;3.55;3.08;;;;;;;27.54;44.32;101034.66;5073091;28;20060;-81
2022/06/19 10:14:10;;;;;;;8.32;3.60;;;;;;;27.51;44.75;101036.91;5075856;28;20071;-83
2022/06/19 10:16:50;;;;;;;4.95;3.10;;;;;;;27.48;44.77;101046.28;5075141;28;20043;-84
2022/06/19 10:19:29;;;;;;;5.13;3.08;;;;;;;27.46;44.84;101034.72;5075004;28;20055;-83
2022/06/19 10:22:15;;;;;;;4.85;3.30;;;;;;;27.45;44.94;101040.34;5056852;28;20048;-82
2022/06/19 10:25:03;;;;;;;5.28;3.30;;;;;;;27.43;44.96;101037.81;5074439;28;20048;-81
2022/06/19 10:28:08;;;;;;;6.60;3.35;;;;;;;27.42;45.17;101036.09;5074380;28;20407;-86
2022/06/19 10:30:38;;;;;;;3.63;3.13;;;;;;;27.41;45.19;101025.41;5074271;28;20041;-84
2022/06/19 10:33:06;;;;;;;5.55;3.20;;;;;;;27.41;45.22;101033.56;5075474;28;20479;-86
2022/06/19 10:35:39;;;;;;;4.35;3.55;;;;;;;27.40;45.52;101018.28;5079576;28;20040;-82
2022/06/19 10:38:31;;;;;;;4.22;3.30;;;;;;;27.39;45.83;101019.31;5094643;28;20062;-81
2022/06/19 10:41:09;;;;;;;3.60;3.20;;;;;;;27.39;45.66;101014.75;5094697;28;20044;-81
2022/06/19 10:43:59;;;;;;;3.20;2.90;;;;;;;27.40;45.91;101021.00;5094351;28;20530;-82
2022/06/19 10:46:27;;;;;;;7.45;3.20;;;;;;;27.39;46.08;101009.28;5094178;28;20036;-83
2022/06/19 10:49:05;;;;;;;3.42;3.10;;;;;;;27.39;45.82;101003.84;5094825;28;20044;-82
2022/06/19 10:51:59;;;;;;;3.42;3.08;;;;;;;27.39;46.01;101001.16;5094764;28;20404;-82
2022/06/19 10:54:46;;;;;;;4.60;3.75;;;;;;;27.40;46.01;100996.53;5094104;28;20510;-81
2022/06/19 10:57:29;;;;;;;4.13;3.20;;;;;;;27.40;45.97;100997.38;5094495;28;20480;-81
2022/06/19 10:59:56;;;;;;;3.58;3.28;;;;;;;27.39;46.05;100998.41;5094802;28;20388;-83
2022/06/19 11:06:22;;;;;;;4.47;3.58;;;;;;;27.40;46.16;100993.81;5072393;28;20056;-82
2022/06/19 11:09:00;;;;;;;;;;;;;;;27.40;46.52;100994.66;5073098;28;20052;-83
2022/06/19 11:11:30;;;;;;;4.63;3.15;;;;;;;27.40;46.37;100996.53;5073080;28;19920;-83
2022/06/19 11:14:11;;;;;;;4.32;3.30;;;;;;;27.40;46.23;100991.09;5055281;28;20044;-82
2022/06/19 11:16:56;;;;;;;4.28;3.15;;;;;;;27.40;46.78;100985.66;5054835;28;20060;-81
2022/06/19 11:19:50;;;;;;;3.47;3.15;;;;;;;27.40;46.80;100970.19;5071855;28;20052;-82
2022/06/19 11:22:40;;;;;;;4.63;3.58;;;;;;;27.41;46.71;100981.91;5068822;28;20060;-82
2022/06/19 11:25:20;;;;;;;3.83;3.53;;;;;;;27.41;46.81;100979.19;5071791;28;20060;-81
2022/06/19 11:28:09;;;;;;;4.97;3.70;;;;;;;27.41;47.16;100980.03;5071184;28;20052;-81
2022/06/19 11:30:50;;;;;;;3.97;3.58;;;;;;;27.42;47.53;100972.72;5071655;28;20060;-81
2022/06/19 11:33:35;;;;;;;3.80;3.40;;;;;;;27.43;47.56;100961.69;5071345;28;20040;-81
2022/06/19 11:36:08;;;;;;;3.88;3.25;;;;;;;27.44;47.78;100967.97;5057550;28;20064;-81
2022/06/19 11:38:42;;;;;;;4.53;4.13;;;;;;;27.43;47.73;100961.69;5069244;28;20123;-81
2022/06/19 11:41:21;;;;;;;4.45;3.15;;;;;;;27.44;47.87;100963.38;5071110;28;20060;-85
2022/06/19 11:44:19;;;;;;;4.20;3.40;;;;;;;27.45;47.93;100953.34;5094514;28;20385;-84
2022/06/19 11:46:53;;;;;;;3.97;3.50;;;;;;;27.45;47.93;100953.34;5094542;28;20079;-87
2022/06/19 11:49:31;;;;;;;3.83;3.20;;;;;;;27.45;48.04;100951.47;5095256;28;20048;-86
2022/06/19 11:52:25;;;;;;;4.55;3.35;;;;;;;27.44;48.34;100949.78;5094442;28;20059;-84
2022/06/19 11:54:53;;;;;;;7.40;4.40;;;;;;;27.44;48.47;100955.22;5094995;28;20043;-85
2022/06/19 11:57:33;;;;;;;4.65;3.83;;;;;;;27.45;48.17;100954.19;5094649;28;20391;-88
2022/06/19 12:00:05;;;;;;;3.92;3.28;;;;;;;27.44;48.45;100952.50;5093438;28;20047;-82